sensor_id;sensor_type;location;lat;lon;timestamp;temperature;humidity
9383;DHT22;4731;49.708;10.816;2022-08-19T00:01:17;21.00;99.90
9383;DHT22;4731;49.708;10.816;2022-08-19T00:03:44;19.70;99.90
9383;DHT22;4731;49.708;10.816;2022-08-19T00:06:11;21.00;99.90
9383;DHT22;4731;49.708;10.816;2022-08-19T00:08:39;20.70;99.90
9383;DHT22;4731;49.708;10.816;2022-08-19T00:11:06;19.70;99.90
9383;DHT22;4731;49.708;10.816;2022-08-19T00:13:33;19.70;99.90
9383;DHT22;4731;49.708;10.816;2022-08-19T00:16:01;19.60;99.90
9383;DHT22;4731;49.708;10.816;2022-08-19T00:18:28;19.50;99.90
9383;DHT22;4731;49.708;10.816;2022-08-19T00:20:55;19.70;99.90
9383;DHT22;4731;49.708;10.816;2022-08-19T00:23:22;20.20;99.90
9383;DHT22;4731;49.708;10.816;2022-08-19T00:25:50;19.60;99.90
9383;DHT22;4731;49.708;10.816;2022-08-19T00:28:17;19.50;99.90
9383;DHT22;4731;49.708;10.816;2022-08-19T00:30:44;20.10;99.90
9383;DHT22;4731;49.708;10.816;2022-08-19T00:33:11;19.50;99.90
9383;DHT22;4731;49.708;10.816;2022-08-19T00:35:39;19.50;99.90
9383;DHT22;4731;49.708;10.816;2022-08-19T00:38:05;20.00;99.90
9383;DHT22;4731;49.708;10.816;2022-08-19T00:40:32;19.50;99.90
9383;DHT22;4731;49.708;10.816;2022-08-19T00:43:01;21.20;99.90
9383;DHT22;4731;49.708;10.816;2022-08-19T00:45:33;20.80;99.90
9383;DHT22;4731;49.708;10.816;2022-08-19T00:48:01;19.50;99.90
9383;DHT22;4731;49.708;10.816;2022-08-19T00:50:30;19.50;99.90
9383;DHT22;4731;49.708;10.816;2022-08-19T00:52:57;21.50;99.90
9383;DHT22;4731;49.708;10.816;2022-08-19T00:55:26;19.50;99.90
9383;DHT22;4731;49.708;10.816;2022-08-19T00:57:56;21.20;99.90
9383;DHT22;4731;49.708;10.816;2022-08-19T01:00:28;21.10;99.90
9383;DHT22;4731;49.708;10.816;2022-08-19T01:02:55;19.40;99.90
9383;DHT22;4731;49.708;10.816;2022-08-19T01:05:24;21.00;99.90
9383;DHT22;4731;49.708;10.816;2022-08-19T01:07:53;22.00;99.90
9383;DHT22;4731;49.708;10.816;2022-08-19T01:10:22;19.40;99.90
9383;DHT22;4731;49.708;10.816;2022-08-19T01:12:52;19.40;99.90
9383;DHT22;4731;49.708;10.816;2022-08-19T01:15:23;19.40;99.90
9383;DHT22;4731;49.708;10.816;2022-08-19T01:17:53;19.40;99.90
9383;DHT22;4731;49.708;10.816;2022-08-19T01:20:23;19.60;99.90
9383;DHT22;4731;49.708;10.816;2022-08-19T01:22:53;19.40;99.90
9383;DHT22;4731;49.708;10.816;2022-08-19T01:25:26;19.40;99.90
9383;DHT22;4731;49.708;10.816;2022-08-19T01:27:55;19.50;99.90
9383;DHT22;4731;49.708;10.816;2022-08-19T01:30:26;19.50;99.90
9383;DHT22;4731;49.708;10.816;2022-08-19T01:32:54;21.60;99.90
9383;DHT22;4731;49.708;10.816;2022-08-19T01:35:22;19.60;99.90
9383;DHT22;4731;49.708;10.816;2022-08-19T01:37:55;19.60;99.90
9383;DHT22;4731;49.708;10.816;2022-08-19T01:40:24;19.70;99.90
9383;DHT22;4731;49.708;10.816;2022-08-19T01:42:52;19.60;99.90
9383;DHT22;4731;49.708;10.816;2022-08-19T01:45:22;19.60;99.90
9383;DHT22;4731;49.708;10.816;2022-08-19T01:47:49;19.90;99.90
9383;DHT22;4731;49.708;10.816;2022-08-19T01:50:17;19.60;99.90
9383;DHT22;4731;49.708;10.816;2022-08-19T01:52:44;19.90;99.90
9383;DHT22;4731;49.708;10.816;2022-08-19T01:55:20;20.90;99.90
9383;DHT22;4731;49.708;10.816;2022-08-19T01:57:50;19.50;99.90
9383;DHT22;4731;49.708;10.816;2022-08-19T02:00:20;19.40;99.90
9383;DHT22;4731;49.708;10.816;2022-08-19T02:02:48;19.40;99.90
9383;DHT22;4731;49.708;10.816;2022-08-19T02:05:15;20.00;99.90
9383;DHT22;4731;49.708;10.816;2022-08-19T02:07:43;19.40;99.90
9383;DHT22;4731;49.708;10.816;2022-08-19T02:10:15;19.40;99.90
9383;DHT22;4731;49.708;10.816;2022-08-19T02:12:42;19.30;99.90
9383;DHT22;4731;49.708;10.816;2022-08-19T02:15:09;19.40;99.90
9383;DHT22;4731;49.708;10.816;2022-08-19T02:17:37;19.40;99.90
9383;DHT22;4731;49.708;10.816;2022-08-19T02:20:05;19.40;99.90
9383;DHT22;4731;49.708;10.816;2022-08-19T02:22:33;19.40;99.90
9383;DHT22;4731;49.708;10.816;2022-08-19T02:25:01;19.50;99.90
9383;DHT22;4731;49.708;10.816;2022-08-19T02:27:30;19.60;99.90
9383;DHT22;4731;49.708;10.816;2022-08-19T02:29:59;19.60;99.90
9383;DHT22;4731;49.708;10.816;2022-08-19T02:32:26;19.60;99.90
9383;DHT22;4731;49.708;10.816;2022-08-19T02:34:53;19.60;99.90
9383;DHT22;4731;49.708;10.816;2022-08-19T02:37:19;19.60;99.90
9383;DHT22;4731;49.708;10.816;2022-08-19T02:40:04;19.60;99.90
9383;DHT22;4731;49.708;10.816;2022-08-19T02:42:32;19.60;99.90
9383;DHT22;4731;49.708;10.816;2022-08-19T02:44:59;19.60;99.90
9383;DHT22;4731;49.708;10.816;2022-08-19T02:47:29;19.70;99.90
9383;DHT22;4731;49.708;10.816;2022-08-19T02:49:56;19.60;99.90
9383;DHT22;4731;49.708;10.816;2022-08-19T02:52:23;19.60;99.90
9383;DHT22;4731;49.708;10.816;2022-08-19T02:54:50;20.00;99.90
9383;DHT22;4731;49.708;10.816;2022-08-19T02:57:17;19.60;99.90
9383;DHT22;4731;49.708;10.816;2022-08-19T02:59:45;19.60;99.90
9383;DHT22;4731;49.708;10.816;2022-08-19T03:02:12;19.70;99.90
9383;DHT22;4731;49.708;10.816;2022-08-19T03:04:39;19.70;99.90
9383;DHT22;4731;49.708;10.816;2022-08-19T03:07:07;19.70;99.90
9383;DHT22;4731;49.708;10.816;2022-08-19T03:09:36;19.70;99.90
9383;DHT22;4731;49.708;10.816;2022-08-19T03:12:04;19.70;99.90
9383;DHT22;4731;49.708;10.816;2022-08-19T03:14:32;19.70;99.90
9383;DHT22;4731;49.708;10.816;2022-08-19T03:17:02;19.70;99.90
9383;DHT22;4731;49.708;10.816;2022-08-19T03:19:30;19.60;99.90
9383;DHT22;4731;49.708;10.816;2022-08-19T03:21:57;19.50;99.90
9383;DHT22;4731;49.708;10.816;2022-08-19T03:24:24;21.20;99.90
9383;DHT22;4731;49.708;10.816;2022-08-19T03:26:53;19.40;99.90
9383;DHT22;4731;49.708;10.816;2022-08-19T03:29:23;19.60;99.90
9383;DHT22;4731;49.708;10.816;2022-08-19T03:31:50;19.60;99.90
9383;DHT22;4731;49.708;10.816;2022-08-19T03:34:21;19.60;99.90
9383;DHT22;4731;49.708;10.816;2022-08-19T03:36:51;19.60;99.90
9383;DHT22;4731;49.708;10.816;2022-08-19T03:39:19;19.60;99.90
9383;DHT22;4731;49.708;10.816;2022-08-19T03:41:47;19.70;99.90
9383;DHT22;4731;49.708;10.816;2022-08-19T03:44:16;19.60;99.90
9383;DHT22;4731;49.708;10.816;2022-08-19T03:46:47;22.50;99.90
9383;DHT22;4731;49.708;10.816;2022-08-19T03:49:15;19.60;99.90
9383;DHT22;4731;49.708;10.816;2022-08-19T03:51:43;19.70;99.90
9383;DHT22;4731;49.708;10.816;2022-08-19T03:54:11;19.60;99.90
9383;DHT22;4731;49.708;10.816;2022-08-19T03:56:40;20.10;99.90
9383;DHT22;4731;49.708;10.816;2022-08-19T03:59:10;19.90;99.90
9383;DHT22;4731;49.708;10.816;2022-08-19T04:01:40;19.60;99.90
9383;DHT22;4731;49.708;10.816;2022-08-19T04:04:07;19.70;99.90
9383;DHT22;4731;49.708;10.816;2022-08-19T04:06:36;19.60;99.90
9383;DHT22;4731;49.708;10.816;2022-08-19T04:09:08;19.50;99.90
9383;DHT22;4731;49.708;10.816;2022-08-19T04:11:37;19.50;99.90
9383;DHT22;4731;49.708;10.816;2022-08-19T04:14:05;19.40;99.90
9383;DHT22;4731;49.708;10.816;2022-08-19T04:16:33;19.40;99.90
9383;DHT22;4731;49.708;10.816;2022-08-19T04:19:01;20.80;99.90
9383;DHT22;4731;49.708;10.816;2022-08-19T04:21:28;19.20;99.90
9383;DHT22;4731;49.708;10.816;2022-08-19T04:23:56;19.30;99.90
9383;DHT22;4731;49.708;10.816;2022-08-19T04:26:26;19.20;99.90
9383;DHT22;4731;49.708;10.816;2022-08-19T04:28:54;21.40;99.90
9383;DHT22;4731;49.708;10.816;2022-08-19T04:31:23;19.20;99.90
9383;DHT22;4731;49.708;10.816;2022-08-19T04:33:51;19.20;99.90
9383;DHT22;4731;49.708;10.816;2022-08-19T04:36:20;19.20;99.90
9383;DHT22;4731;49.708;10.816;2022-08-19T04:38:47;19.20;99.90
9383;DHT22;4731;49.708;10.816;2022-08-19T04:41:14;19.20;99.90
9383;DHT22;4731;49.708;10.816;2022-08-19T04:44:00;19.20;99.90
9383;DHT22;4731;49.708;10.816;2022-08-19T04:46:28;19.20;99.90
9383;DHT22;4731;49.708;10.816;2022-08-19T04:48:55;19.20;99.90
9383;DHT22;4731;49.708;10.816;2022-08-19T04:51:23;20.10;99.90
9383;DHT22;4731;49.708;10.816;2022-08-19T04:53:50;19.20;99.90
9383;DHT22;4731;49.708;10.816;2022-08-19T04:56:19;19.20;99.90
9383;DHT22;4731;49.708;10.816;2022-08-19T04:58:49;19.20;99.90
9383;DHT22;4731;49.708;10.816;2022-08-19T05:01:20;19.20;99.90
9383;DHT22;4731;49.708;10.816;2022-08-19T05:03:47;19.30;99.90
9383;DHT22;4731;49.708;10.816;2022-08-19T05:06:16;19.30;99.90
9383;DHT22;4731;49.708;10.816;2022-08-19T05:08:43;19.40;99.90
9383;DHT22;4731;49.708;10.816;2022-08-19T05:11:14;19.40;99.90
9383;DHT22;4731;49.708;10.816;2022-08-19T05:13:42;20.00;99.90
9383;DHT22;4731;49.708;10.816;2022-08-19T05:16:10;19.40;99.90
9383;DHT22;4731;49.708;10.816;2022-08-19T05:18:41;19.40;99.90
9383;DHT22;4731;49.708;10.816;2022-08-19T05:21:26;19.40;99.90
9383;DHT22;4731;49.708;10.816;2022-08-19T05:24:13;19.50;99.90
9383;DHT22;4731;49.708;10.816;2022-08-19T05:26:43;19.40;99.90
9383;DHT22;4731;49.708;10.816;2022-08-19T05:29:11;19.40;99.90
9383;DHT22;4731;49.708;10.816;2022-08-19T05:31:38;20.10;99.90
9383;DHT22;4731;49.708;10.816;2022-08-19T05:34:07;19.40;99.90
9383;DHT22;4731;49.708;10.816;2022-08-19T05:36:36;19.50;99.90
9383;DHT22;4731;49.708;10.816;2022-08-19T05:39:04;19.40;99.90
9383;DHT22;4731;49.708;10.816;2022-08-19T05:41:31;19.40;99.90
9383;DHT22;4731;49.708;10.816;2022-08-19T05:44:02;19.40;99.90
9383;DHT22;4731;49.708;10.816;2022-08-19T05:46:31;19.50;99.90
9383;DHT22;4731;49.708;10.816;2022-08-19T05:48:58;19.60;99.90
9383;DHT22;4731;49.708;10.816;2022-08-19T05:51:26;19.60;99.90
9383;DHT22;4731;49.708;10.816;2022-08-19T05:53:53;19.60;99.90
9383;DHT22;4731;49.708;10.816;2022-08-19T05:56:20;19.60;99.90
9383;DHT22;4731;49.708;10.816;2022-08-19T05:58:47;19.60;99.90
9383;DHT22;4731;49.708;10.816;2022-08-19T06:01:16;19.70;99.90
9383;DHT22;4731;49.708;10.816;2022-08-19T06:03:43;19.70;99.90
9383;DHT22;4731;49.708;10.816;2022-08-19T06:06:14;19.70;99.90
9383;DHT22;4731;49.708;10.816;2022-08-19T06:08:43;19.80;99.90
9383;DHT22;4731;49.708;10.816;2022-08-19T06:11:19;19.80;99.90
9383;DHT22;4731;49.708;10.816;2022-08-19T06:13:48;19.90;99.90
9383;DHT22;4731;49.708;10.816;2022-08-19T06:16:16;19.90;99.90
9383;DHT22;4731;49.708;10.816;2022-08-19T06:18:46;19.90;99.90
9383;DHT22;4731;49.708;10.816;2022-08-19T06:21:14;19.90;99.90
9383;DHT22;4731;49.708;10.816;2022-08-19T06:23:42;19.90;99.90
9383;DHT22;4731;49.708;10.816;2022-08-19T06:26:11;20.10;99.90
9383;DHT22;4731;49.708;10.816;2022-08-19T06:28:41;20.00;99.90
9383;DHT22;4731;49.708;10.816;2022-08-19T06:31:12;19.90;99.90
9383;DHT22;4731;49.708;10.816;2022-08-19T06:33:40;19.90;99.90
9383;DHT22;4731;49.708;10.816;2022-08-19T06:36:08;19.80;99.90
9383;DHT22;4731;49.708;10.816;2022-08-19T06:38:34;19.80;99.90
9383;DHT22;4731;49.708;10.816;2022-08-19T06:41:04;19.90;99.90
9383;DHT22;4731;49.708;10.816;2022-08-19T06:43:31;19.90;99.90
9383;DHT22;4731;49.708;10.816;2022-08-19T06:45:58;20.00;99.90
9383;DHT22;4731;49.708;10.816;2022-08-19T06:48:27;20.10;99.90
9383;DHT22;4731;49.708;10.816;2022-08-19T06:50:55;20.20;99.90
9383;DHT22;4731;49.708;10.816;2022-08-19T06:53:22;20.30;99.90
9383;DHT22;4731;49.708;10.816;2022-08-19T06:55:49;20.40;99.90
9383;DHT22;4731;49.708;10.816;2022-08-19T06:58:21;20.50;99.90
9383;DHT22;4731;49.708;10.816;2022-08-19T07:00:48;20.60;99.90
9383;DHT22;4731;49.708;10.816;2022-08-19T07:03:16;20.60;99.90
9383;DHT22;4731;49.708;10.816;2022-08-19T07:05:43;20.80;99.90
9383;DHT22;4731;49.708;10.816;2022-08-19T07:08:10;20.80;99.90
9383;DHT22;4731;49.708;10.816;2022-08-19T07:10:37;20.80;99.90
9383;DHT22;4731;49.708;10.816;2022-08-19T07:13:04;20.80;99.90
9383;DHT22;4731;49.708;10.816;2022-08-19T07:15:32;20.80;99.90
9383;DHT22;4731;49.708;10.816;2022-08-19T07:17:59;20.80;99.90
9383;DHT22;4731;49.708;10.816;2022-08-19T07:20:26;20.60;99.90
9383;DHT22;4731;49.708;10.816;2022-08-19T07:22:52;20.60;99.90
9383;DHT22;4731;49.708;10.816;2022-08-19T07:25:19;20.50;99.90
9383;DHT22;4731;49.708;10.816;2022-08-19T07:27:49;20.50;99.90
9383;DHT22;4731;49.708;10.816;2022-08-19T07:30:16;20.40;99.90
9383;DHT22;4731;49.708;10.816;2022-08-19T07:35:11;20.40;99.90
9383;DHT22;4731;49.708;10.816;2022-08-19T07:37:38;20.40;99.90
9383;DHT22;4731;49.708;10.816;2022-08-19T07:40:10;20.80;99.90
9383;DHT22;4731;49.708;10.816;2022-08-19T07:42:36;20.30;99.90
9383;DHT22;4731;49.708;10.816;2022-08-19T07:45:04;20.30;99.90
9383;DHT22;4731;49.708;10.816;2022-08-19T07:47:32;20.30;99.90
9383;DHT22;4731;49.708;10.816;2022-08-19T07:50:00;20.40;99.90
9383;DHT22;4731;49.708;10.816;2022-08-19T07:52:29;20.30;99.90
9383;DHT22;4731;49.708;10.816;2022-08-19T07:54:56;20.40;99.90
9383;DHT22;4731;49.708;10.816;2022-08-19T07:57:25;20.40;99.90
9383;DHT22;4731;49.708;10.816;2022-08-19T07:59:52;22.20;99.90
9383;DHT22;4731;49.708;10.816;2022-08-19T08:02:18;21.30;99.90
9383;DHT22;4731;49.708;10.816;2022-08-19T08:04:45;20.50;99.90
9383;DHT22;4731;49.708;10.816;2022-08-19T08:07:31;20.40;99.90
9383;DHT22;4731;49.708;10.816;2022-08-19T08:10:15;20.50;99.90
9383;DHT22;4731;49.708;10.816;2022-08-19T08:12:42;20.50;99.90
9383;DHT22;4731;49.708;10.816;2022-08-19T08:15:12;20.60;99.90
9383;DHT22;4731;49.708;10.816;2022-08-19T08:17:42;20.60;99.90
9383;DHT22;4731;49.708;10.816;2022-08-19T08:20:10;20.80;99.90
9383;DHT22;4731;49.708;10.816;2022-08-19T08:22:43;21.20;99.90
9383;DHT22;4731;49.708;10.816;2022-08-19T08:25:27;21.10;99.90
9383;DHT22;4731;49.708;10.816;2022-08-19T08:27:55;21.30;99.90
9383;DHT22;4731;49.708;10.816;2022-08-19T08:30:27;21.50;99.90
9383;DHT22;4731;49.708;10.816;2022-08-19T08:32:54;21.70;99.90
9383;DHT22;4731;49.708;10.816;2022-08-19T08:35:22;18.90;99.90
9383;DHT22;4731;49.708;10.816;2022-08-19T08:37:53;22.20;99.90
9383;DHT22;4731;49.708;10.816;2022-08-19T08:40:23;22.40;99.90
9383;DHT22;4731;49.708;10.816;2022-08-19T08:42:57;22.40;99.90
9383;DHT22;4731;49.708;10.816;2022-08-19T08:45:27;22.60;99.90
9383;DHT22;4731;49.708;10.816;2022-08-19T08:47:57;22.90;99.90
9383;DHT22;4731;49.708;10.816;2022-08-19T08:50:28;22.90;99.90
9383;DHT22;4731;49.708;10.816;2022-08-19T08:52:58;23.20;99.90
9383;DHT22;4731;49.708;10.816;2022-08-19T08:55:26;23.20;99.90
9383;DHT22;4731;49.708;10.816;2022-08-19T08:57:59;23.20;99.90
9383;DHT22;4731;49.708;10.816;2022-08-19T09:00:30;23.30;99.90
9383;DHT22;4731;49.708;10.816;2022-08-19T09:02:59;23.40;99.90
9383;DHT22;4731;49.708;10.816;2022-08-19T09:05:36;23.40;99.90
9383;DHT22;4731;49.708;10.816;2022-08-19T09:08:12;23.50;99.90
9383;DHT22;4731;49.708;10.816;2022-08-19T09:10:44;25.00;99.90
9383;DHT22;4731;49.708;10.816;2022-08-19T09:13:30;23.30;99.90
9383;DHT22;4731;49.708;10.816;2022-08-19T09:16:02;20.30;99.90
9383;DHT22;4731;49.708;10.816;2022-08-19T09:18:39;23.00;99.90
9383;DHT22;4731;49.708;10.816;2022-08-19T09:21:06;22.90;99.90
9383;DHT22;4731;49.708;10.816;2022-08-19T09:23:35;22.70;99.90
9383;DHT22;4731;49.708;10.816;2022-08-19T09:26:07;22.60;99.90
9383;DHT22;4731;49.708;10.816;2022-08-19T09:28:34;22.30;99.90
9383;DHT22;4731;49.708;10.816;2022-08-19T09:31:02;22.30;99.90
9383;DHT22;4731;49.708;10.816;2022-08-19T09:33:29;22.10;99.90
9383;DHT22;4731;49.708;10.816;2022-08-19T09:36:03;22.00;99.90
9383;DHT22;4731;49.708;10.816;2022-08-19T09:38:30;22.00;99.90
9383;DHT22;4731;49.708;10.816;2022-08-19T09:41:03;21.90;99.90
9383;DHT22;4731;49.708;10.816;2022-08-19T09:43:31;22.20;99.90
9383;DHT22;4731;49.708;10.816;2022-08-19T09:45:58;22.10;99.90
9383;DHT22;4731;49.708;10.816;2022-08-19T09:48:25;22.30;99.90
9383;DHT22;4731;49.708;10.816;2022-08-19T09:50:52;22.30;99.90
9383;DHT22;4731;49.708;10.816;2022-08-19T09:53:19;22.30;99.90
9383;DHT22;4731;49.708;10.816;2022-08-19T09:55:48;22.40;99.90
9383;DHT22;4731;49.708;10.816;2022-08-19T09:58:16;22.50;99.90
9383;DHT22;4731;49.708;10.816;2022-08-19T10:00:43;22.60;99.90
9383;DHT22;4731;49.708;10.816;2022-08-19T10:03:11;22.60;99.90
9383;DHT22;4731;49.708;10.816;2022-08-19T10:05:38;22.60;99.90
9383;DHT22;4731;49.708;10.816;2022-08-19T10:08:22;22.60;99.90
9383;DHT22;4731;49.708;10.816;2022-08-19T10:10:49;22.60;99.90
9383;DHT22;4731;49.708;10.816;2022-08-19T10:13:20;22.80;99.90
9383;DHT22;4731;49.708;10.816;2022-08-19T10:15:51;22.90;99.90
9383;DHT22;4731;49.708;10.816;2022-08-19T10:18:20;23.20;99.90
9383;DHT22;4731;49.708;10.816;2022-08-19T10:20:48;23.30;99.90
9383;DHT22;4731;49.708;10.816;2022-08-19T10:23:16;23.70;99.90
9383;DHT22;4731;49.708;10.816;2022-08-19T10:25:43;23.90;99.90
9383;DHT22;4731;49.708;10.816;2022-08-19T10:28:10;24.00;99.90
9383;DHT22;4731;49.708;10.816;2022-08-19T10:33:07;24.40;99.90
9383;DHT22;4731;49.708;10.816;2022-08-19T10:38:01;25.00;99.90
9383;DHT22;4731;49.708;10.816;2022-08-19T10:40:28;25.00;99.90
9383;DHT22;4731;49.708;10.816;2022-08-19T10:42:55;25.00;99.90
9383;DHT22;4731;49.708;10.816;2022-08-19T10:45:22;23.40;99.90
9383;DHT22;4731;49.708;10.816;2022-08-19T10:47:53;24.80;99.90
9383;DHT22;4731;49.708;10.816;2022-08-19T10:50:19;24.60;99.90
9383;DHT22;4731;49.708;10.816;2022-08-19T10:53:05;24.40;99.90
9383;DHT22;4731;49.708;10.816;2022-08-19T10:55:34;24.30;99.90
9383;DHT22;4731;49.708;10.816;2022-08-19T10:58:20;24.00;99.90
9383;DHT22;4731;49.708;10.816;2022-08-19T11:00:54;24.10;99.90
9383;DHT22;4731;49.708;10.816;2022-08-19T11:03:23;23.90;99.90
9383;DHT22;4731;49.708;10.816;2022-08-19T11:05:58;23.90;99.90
9383;DHT22;4731;49.708;10.816;2022-08-19T11:08:25;23.90;99.90
9383;DHT22;4731;49.708;10.816;2022-08-19T11:10:53;24.00;99.90
9383;DHT22;4731;49.708;10.816;2022-08-19T11:13:23;23.90;99.90
9383;DHT22;4731;49.708;10.816;2022-08-19T11:15:57;23.80;99.90
9383;DHT22;4731;49.708;10.816;2022-08-19T11:18:25;23.90;99.90
9383;DHT22;4731;49.708;10.816;2022-08-19T11:20:52;23.70;99.90
9383;DHT22;4731;49.708;10.816;2022-08-19T11:23:19;23.50;99.90
9383;DHT22;4731;49.708;10.816;2022-08-19T11:25:46;23.40;99.90
9383;DHT22;4731;49.708;10.816;2022-08-19T11:28:13;23.30;99.90
9383;DHT22;4731;49.708;10.816;2022-08-19T11:30:40;23.30;99.90
9383;DHT22;4731;49.708;10.816;2022-08-19T11:33:08;23.20;99.90
9383;DHT22;4731;49.708;10.816;2022-08-19T11:38:07;22.90;99.90
9383;DHT22;4731;49.708;10.816;2022-08-19T11:43:01;22.80;99.90
9383;DHT22;4731;49.708;10.816;2022-08-19T11:45:28;22.70;99.90
9383;DHT22;4731;49.708;10.816;2022-08-19T11:47:55;22.70;99.90
9383;DHT22;4731;49.708;10.816;2022-08-19T11:50:23;22.70;99.90
9383;DHT22;4731;49.708;10.816;2022-08-19T11:52:53;22.70;99.90
9383;DHT22;4731;49.708;10.816;2022-08-19T11:55:20;22.80;99.90
9383;DHT22;4731;49.708;10.816;2022-08-19T11:57:47;22.80;99.90
9383;DHT22;4731;49.708;10.816;2022-08-19T12:00:15;22.60;99.90
9383;DHT22;4731;49.708;10.816;2022-08-19T12:02:41;22.60;99.90
9383;DHT22;4731;49.708;10.816;2022-08-19T12:05:11;22.50;99.90
9383;DHT22;4731;49.708;10.816;2022-08-19T12:07:39;22.50;99.90
9383;DHT22;4731;49.708;10.816;2022-08-19T12:10:08;22.30;99.90
9383;DHT22;4731;49.708;10.816;2022-08-19T12:12:35;22.20;99.90
9383;DHT22;4731;49.708;10.816;2022-08-19T12:15:03;22.20;99.90
9383;DHT22;4731;49.708;10.816;2022-08-19T12:17:30;22.20;99.90
9383;DHT22;4731;49.708;10.816;2022-08-19T12:19:57;22.30;99.90
9383;DHT22;4731;49.708;10.816;2022-08-19T12:22:24;22.20;99.90
9383;DHT22;4731;49.708;10.816;2022-08-19T12:24:54;22.30;99.90
9383;DHT22;4731;49.708;10.816;2022-08-19T12:27:23;22.40;99.90
9383;DHT22;4731;49.708;10.816;2022-08-19T12:29:50;22.40;99.90
9383;DHT22;4731;49.708;10.816;2022-08-19T12:32:17;22.50;99.90
9383;DHT22;4731;49.708;10.816;2022-08-19T12:34:44;22.50;99.90
9383;DHT22;4731;49.708;10.816;2022-08-19T12:37:13;22.50;99.90
9383;DHT22;4731;49.708;10.816;2022-08-19T12:39:41;22.50;99.90
9383;DHT22;4731;49.708;10.816;2022-08-19T12:42:09;22.60;99.90
9383;DHT22;4731;49.708;10.816;2022-08-19T12:44:39;22.70;99.90
9383;DHT22;4731;49.708;10.816;2022-08-19T12:47:06;22.70;99.90
9383;DHT22;4731;49.708;10.816;2022-08-19T12:49:34;22.80;99.90
9383;DHT22;4731;49.708;10.816;2022-08-19T12:52:03;22.80;99.90
9383;DHT22;4731;49.708;10.816;2022-08-19T12:54:31;22.90;99.90
9383;DHT22;4731;49.708;10.816;2022-08-19T12:56:58;22.80;99.90
9383;DHT22;4731;49.708;10.816;2022-08-19T12:59:25;22.90;99.90
9383;DHT22;4731;49.708;10.816;2022-08-19T13:01:55;22.80;99.90
9383;DHT22;4731;49.708;10.816;2022-08-19T13:04:21;22.80;99.90
9383;DHT22;4731;49.708;10.816;2022-08-19T13:06:48;22.70;99.90
9383;DHT22;4731;49.708;10.816;2022-08-19T13:09:15;22.70;99.90
9383;DHT22;4731;49.708;10.816;2022-08-19T13:11:42;22.70;99.90
9383;DHT22;4731;49.708;10.816;2022-08-19T13:14:09;22.70;99.90
9383;DHT22;4731;49.708;10.816;2022-08-19T13:16:36;22.80;99.90
9383;DHT22;4731;49.708;10.816;2022-08-19T13:21:33;22.70;99.90
9383;DHT22;4731;49.708;10.816;2022-08-19T13:23:59;23.20;99.90
9383;DHT22;4731;49.708;10.816;2022-08-19T13:26:26;22.50;99.90
9383;DHT22;4731;49.708;10.816;2022-08-19T13:28:54;22.50;99.90
9383;DHT22;4731;49.708;10.816;2022-08-19T13:31:40;22.50;99.90
9383;DHT22;4731;49.708;10.816;2022-08-19T13:34:30;22.50;99.90
9383;DHT22;4731;49.708;10.816;2022-08-19T13:36:57;22.20;99.90
9383;DHT22;4731;49.708;10.816;2022-08-19T13:39:24;21.80;99.90
9383;DHT22;4731;49.708;10.816;2022-08-19T13:41:52;21.50;99.90
9383;DHT22;4731;49.708;10.816;2022-08-19T13:44:20;21.50;99.90
9383;DHT22;4731;49.708;10.816;2022-08-19T13:46:49;20.80;99.90
9383;DHT22;4731;49.708;10.816;2022-08-19T13:49:17;20.50;99.90
9383;DHT22;4731;49.708;10.816;2022-08-19T13:51:45;20.40;99.90
9383;DHT22;4731;49.708;10.816;2022-08-19T13:54:12;20.20;99.90
9383;DHT22;4731;49.708;10.816;2022-08-19T13:56:41;20.20;99.90
9383;DHT22;4731;49.708;10.816;2022-08-19T13:59:09;20.10;99.90
9383;DHT22;4731;49.708;10.816;2022-08-19T14:01:37;20.20;99.90
9383;DHT22;4731;49.708;10.816;2022-08-19T14:04:04;21.00;99.90
9383;DHT22;4731;49.708;10.816;2022-08-19T14:06:32;20.20;99.90
9383;DHT22;4731;49.708;10.816;2022-08-19T14:09:02;20.20;99.90
9383;DHT22;4731;49.708;10.816;2022-08-19T14:11:30;20.30;99.90
9383;DHT22;4731;49.708;10.816;2022-08-19T14:13:58;20.10;99.90
9383;DHT22;4731;49.708;10.816;2022-08-19T14:16:25;20.20;99.90
9383;DHT22;4731;49.708;10.816;2022-08-19T14:18:53;20.80;99.90
9383;DHT22;4731;49.708;10.816;2022-08-19T14:21:22;20.20;99.90
9383;DHT22;4731;49.708;10.816;2022-08-19T14:23:52;20.30;99.90
9383;DHT22;4731;49.708;10.816;2022-08-19T14:26:26;21.90;99.90
9383;DHT22;4731;49.708;10.816;2022-08-19T14:28:53;20.20;99.90
9383;DHT22;4731;49.708;10.816;2022-08-19T14:31:23;20.10;99.90
9383;DHT22;4731;49.708;10.816;2022-08-19T14:33:50;20.10;99.90
9383;DHT22;4731;49.708;10.816;2022-08-19T14:36:17;20.00;99.90
9383;DHT22;4731;49.708;10.816;2022-08-19T14:38:45;20.00;99.90
9383;DHT22;4731;49.708;10.816;2022-08-19T14:41:14;20.00;99.90
9383;DHT22;4731;49.708;10.816;2022-08-19T14:43:44;19.90;99.90
9383;DHT22;4731;49.708;10.816;2022-08-19T14:46:12;19.80;99.90
9383;DHT22;4731;49.708;10.816;2022-08-19T14:48:41;19.80;99.90
9383;DHT22;4731;49.708;10.816;2022-08-19T14:51:08;19.80;99.90
9383;DHT22;4731;49.708;10.816;2022-08-19T14:53:36;20.50;99.90
9383;DHT22;4731;49.708;10.816;2022-08-19T14:56:07;20.80;99.90
9383;DHT22;4731;49.708;10.816;2022-08-19T14:58:34;20.90;99.90
9383;DHT22;4731;49.708;10.816;2022-08-19T15:01:04;19.90;99.90
9383;DHT22;4731;49.708;10.816;2022-08-19T15:03:30;19.90;99.90
9383;DHT22;4731;49.708;10.816;2022-08-19T15:05:59;19.90;99.90
9383;DHT22;4731;49.708;10.816;2022-08-19T15:08:28;20.00;99.90
9383;DHT22;4731;49.708;10.816;2022-08-19T15:10:57;20.00;99.90
9383;DHT22;4731;49.708;10.816;2022-08-19T15:13:26;20.00;99.90
9383;DHT22;4731;49.708;10.816;2022-08-19T15:15:55;20.10;99.90
9383;DHT22;4731;49.708;10.816;2022-08-19T15:18:24;20.10;99.90
9383;DHT22;4731;49.708;10.816;2022-08-19T15:20:51;20.00;99.90
9383;DHT22;4731;49.708;10.816;2022-08-19T15:23:19;20.00;99.90
9383;DHT22;4731;49.708;10.816;2022-08-19T15:25:49;20.00;99.90
9383;DHT22;4731;49.708;10.816;2022-08-19T15:28:18;20.10;99.90
9383;DHT22;4731;49.708;10.816;2022-08-19T15:30:45;20.10;99.90
9383;DHT22;4731;49.708;10.816;2022-08-19T15:33:12;20.20;99.90
9383;DHT22;4731;49.708;10.816;2022-08-19T15:35:42;20.30;99.90
9383;DHT22;4731;49.708;10.816;2022-08-19T15:38:09;20.30;99.90
9383;DHT22;4731;49.708;10.816;2022-08-19T15:40:39;20.40;99.90
9383;DHT22;4731;49.708;10.816;2022-08-19T15:43:06;21.30;99.90
9383;DHT22;4731;49.708;10.816;2022-08-19T15:45:33;20.50;99.90
9383;DHT22;4731;49.708;10.816;2022-08-19T15:48:01;20.60;99.90
9383;DHT22;4731;49.708;10.816;2022-08-19T15:50:29;20.60;99.90
9383;DHT22;4731;49.708;10.816;2022-08-19T15:53:00;20.50;99.90
9383;DHT22;4731;49.708;10.816;2022-08-19T15:55:31;20.40;99.90
9383;DHT22;4731;49.708;10.816;2022-08-19T15:57:59;20.40;99.90
9383;DHT22;4731;49.708;10.816;2022-08-19T16:00:43;20.40;99.90
9383;DHT22;4731;49.708;10.816;2022-08-19T16:03:24;20.20;99.90
9383;DHT22;4731;49.708;10.816;2022-08-19T16:06:13;20.20;99.90
9383;DHT22;4731;49.708;10.816;2022-08-19T16:08:54;20.10;99.90
9383;DHT22;4731;49.708;10.816;2022-08-19T16:11:24;20.10;99.90